Date,TemperatureHighF,TemperatureAvgF,TemperatureLowF,DewpointHighF,DewpointAvgF,DewpointLowF,HumidityHigh,HumidityAvg,HumidityLow,PressureMaxIn,PressureMinIn,WindSpeedMaxMPH,WindSpeedAvgMPH,GustSpeedMaxMPH,PrecipitationSumIn
2013-2-1,41.4,36.2,27.4,30.0,17.2,5.0,66,48,25,30.38,30.12,15,4,21,0.00
2013-2-2,52.1,36.9,23.7,34.0,20.0,11.0,70,54,25,30.37,30.13,15,1,22,0.18
2013-2-3,55.0,44.3,33.5,36.0,27.5,22.0,66,53,32,30.14,29.99,21,6,32,0.00
2013-2-4,51.3,41.1,30.4,33.0,27.4,20.0,69,59,42,30.13,30.00,8,0,10,0.00
2013-2-5,58.6,46.8,32.5,45.0,34.6,21.0,68,63,60,30.05,29.97,11,1,13,0.00
2013-2-6,68.1,51.6,39.1,43.0,33.9,27.0,66,54,29,30.18,30.03,7,0,10,0.00
2013-2-7,49.3,45.6,43.0,37.0,33.2,32.0,67,62,57,30.13,29.91,11,2,19,0.31
2013-2-8,54.8,47.9,38.7,43.0,35.7,29.0,68,63,59,30.17,29.92,16,2,18,0.04
2013-2-9,63.9,45.2,31.6,35.0,28.4,20.0,72,55,28,30.30,30.14,3,0,8,0.00
2013-2-10,60.2,49.7,41.0,46.0,36.3,30.0,67,61,54,30.31,30.03,11,2,18,1.23
2013-2-11,57.9,52.5,48.5,46.0,40.1,36.0,67,63,59,30.11,30.02,4,1,10,0.62
2013-2-12,56.0,48.8,45.5,40.0,35.6,33.0,67,61,46,30.11,29.84,7,1,16,0.28
2013-2-13,52.6,45.6,39.7,41.0,34.0,29.0,71,64,60,29.96,29.73,21,4,25,0.05
2013-2-14,57.0,44.4,36.6,36.0,31.0,25.0,68,60,39,30.08,29.96,11,3,17,0.00
2013-2-15,61.1,45.9,30.9,39.0,29.8,20.0,68,56,36,30.12,29.98,11,2,17,0.00
2013-2-16,43.8,38.0,30.7,33.0,21.8,11.0,69,54,34,30.15,29.95,18,5,28,0.00
2013-2-17,45.2,34.0,24.5,21.0,15.1,10.0,69,48,27,30.31,30.15,17,3,19,0.00
2013-2-18,60.4,42.3,25.7,29.0,23.9,16.0,71,51,30,30.37,30.13,12,1,12,0.00
2013-2-19,56.7,46.5,40.0,41.0,27.5,19.0,67,49,26,30.14,30.00,14,4,26,0.34
2013-2-20,49.8,41.2,30.8,20.0,14.8,7.0,64,37,20,30.20,30.11,14,4,20,0.00
2013-2-21,64.3,49.4,32.1,39.0,23.5,17.0,64,39,21,30.19,29.95,7,2,13,0.04
2013-2-22,48.5,42.4,41.1,37.0,30.0,28.0,65,62,60,30.15,30.03,13,4,19,1.42
2013-2-23,50.6,46.7,41.2,37.0,34.2,29.0,65,62,60,30.03,29.84,6,1,13,0.99
2013-2-24,63.2,50.9,38.4,38.0,32.4,27.0,67,51,29,30.03,29.90,10,2,16,0.00
2013-2-25,49.3,44.9,39.2,35.0,30.9,27.0,68,59,49,30.03,29.85,16,5,24,0.02
2013-2-26,51.4,42.7,37.3,40.0,30.9,25.0,68,63,61,29.85,29.56,21,5,25,1.44
2013-2-27,59.1,48.4,41.8,36.0,33.1,31.0,67,57,38,29.89,29.78,14,7,23,0.00
2013-2-28,48.9,41.7,36.6,35.0,28.8,25.0,69,61,50,30.00,29.84,15,6,22,0.00